Capitol Logistics 799


KMIA
Miami International Airport
Miami, Florida, US
SAEZ
Aeropuerto Internacional Ezeiza/Ministro Pistarini
Buenos Aires, , AR

Route Details

Aircraft Information
Primary: Boeing 747-400BCF
Backup: Boeing 777-200LRF
Route Data
Distance: 3849nm
Sched. Duration: 8h 00m
Avg. Duration: 9h 01m (+102m)
Times Flown: 1
Recm'd Route: EONNS2 EONNS A509 URSUS UL795 DIBOK UL795 LOGON UL793 SIMUR UL793 AKNOV UL793 SASNO UL793 ROKES UL793 XOLAT UL793 AKPEL UL793 SIS UL793 GUA UW65 PAGON PAGON6B
Planned Altitude: 31,000ft
Origin Wx: KMIA 061153Z 00000KT 10SM FEW020 FEW200 OVC250 28/24 A3003 RMK AO2 SLP169 CB DSNT W 70005 T02830239 10283 20256 53012 $
Dest. Wx: SAEZ 061200Z 25002KT 8000 NSC 01/01 Q1025 NOSIG
Notes:

Financial History
Total Freight: 102,233lbs
Average Load: 102,233lbs/flt
Fuel Used: 165,475lbs
Avg. Fuel Used: 165,475lbs/flt
Fuel Expense: $203,534
Avg. Fuel Expense: $203,534
Avg. Fuel Cost: $1.23/lbs
Total Gross Income: $275,007
Pilot Pay: $149
Total Expenses: $29,753
Total Revenue: $39,561
Average Revenue: $275,006.78